Time;durP1;ratioP1;P1;durP2;ratioP2;P2;SDS_P1;SDS_P2;PMS_P1;PMS_P2;Temp;Humidity;BMP_temperature;BMP_pressure;BME280_temperature;BME280_humidity;BME280_pressure;Samples;Min_cycle;Max_cycle;Signal;HPM_P1;HPM_P2
2023/03/16 00:02:19;;;;;;;11.07;5.30;;;;;;;4.00;46.77;99081.72;4271719;33;34085;-87
2023/03/16 00:04:47;;;;;;;10.43;5.43;;;;;;;3.73;46.99;99092.66;4260052;33;33510;-90
2023/03/16 00:07:14;;;;;;;12.15;5.68;;;;;;;4.02;46.23;99085.22;4270683;33;34608;-90
2023/03/16 00:09:42;;;;;;;12.07;5.57;;;;;;;4.26;45.93;99086.09;4269432;33;34974;-87
2023/03/16 00:12:18;;;;;;;10.55;4.95;;;;;;;3.79;46.82;99092.91;4270403;33;34806;-87
2023/03/16 00:14:47;;;;;;;9.75;4.90;;;;;;;4.09;46.05;99090.62;4248853;33;33685;-88
2023/03/16 00:17:18;;;;;;;10.48;5.10;;;;;;;3.87;46.97;99096.66;4256563;33;32356;-88
2023/03/16 00:19:53;;;;;;;10.18;5.10;;;;;;;4.61;45.50;99104.47;4272089;33;33913;-92
2023/03/16 00:22:28;;;;;;;;;;;;;;;4.19;45.62;99099.53;4272432;33;34017;-87
2023/03/16 00:24:55;;;;;;;11.35;5.78;;;;;;;4.34;45.74;99096.66;4282310;33;34250;-87
2023/03/16 00:27:24;;;;;;;14.85;5.55;;;;;;;4.54;45.29;99095.66;4271881;33;34090;-87
2023/03/16 00:29:55;;;;;;;10.55;4.85;;;;;;;3.71;47.14;99099.41;4250755;33;33346;-86
2023/03/16 00:32:27;;;;;;;11.05;5.68;;;;;;;4.12;46.16;99110.38;4261243;33;33887;-90
2023/03/16 00:34:55;;;;;;;13.27;5.85;;;;;;;3.89;46.77;99109.50;4274023;33;33434;-90
2023/03/16 00:37:23;;;;;;;12.93;5.35;;;;;;;3.77;46.77;99099.66;4272902;33;34025;-87
2023/03/16 00:39:54;;;;;;;16.25;6.75;;;;;;;4.20;45.81;99106.41;4277738;33;33865;-86
2023/03/16 00:42:26;;;;;;;11.68;4.85;;;;;;;3.99;46.29;99103.94;4259491;33;34236;-86
2023/03/16 00:44:56;;;;;;;11.85;5.45;;;;;;;3.88;46.82;99108.66;4260542;33;34486;-87
2023/03/16 00:47:27;;;;;;;12.90;5.28;;;;;;;3.86;46.45;99101.69;4259777;33;33459;-86
2023/03/16 00:49:55;;;;;;;11.70;5.85;;;;;;;4.00;46.52;99102.22;4259209;33;33785;-86
2023/03/16 00:52:23;;;;;;;11.77;5.40;;;;;;;3.86;46.67;99101.69;4276444;33;33960;-88
2023/03/16 00:54:51;;;;;;;14.15;5.12;;;;;;;3.73;47.27;99113.19;4275443;33;34226;-88
2023/03/16 00:57:21;;;;;;;13.52;5.68;;;;;;;4.02;46.85;99101.47;4259029;33;34687;-88
2023/03/16 00:59:49;;;;;;;11.15;5.53;;;;;;;3.99;46.71;99103.06;4260839;33;33955;-87
2023/03/16 01:02:18;;;;;;;17.67;5.35;;;;;;;3.90;46.34;99109.59;4272366;33;34948;-87
2023/03/16 01:04:48;;;;;;;12.32;5.95;;;;;;;3.44;48.13;99122.28;4263850;33;34592;-87
2023/03/16 01:07:15;;;;;;;12.93;6.03;;;;;;;3.36;48.26;99121.97;4276267;33;33968;-87
2023/03/16 01:09:43;;;;;;;11.63;5.20;;;;;;;3.38;48.50;99122.91;4272882;33;33439;-87
2023/03/16 01:12:14;;;;;;;11.00;6.03;;;;;;;3.74;47.50;99121.75;4273421;33;34396;-90
2023/03/16 01:14:46;;;;;;;12.18;5.60;;;;;;;3.65;47.72;99127.41;4262044;33;33474;-89
2023/03/16 01:17:16;;;;;;;15.30;6.22;;;;;;;3.76;47.39;99125.25;4259779;33;33844;-87
2023/03/16 01:19:44;;;;;;;12.30;6.20;;;;;;;3.86;47.03;99129.91;4274755;33;34802;-88
2023/03/16 01:22:12;;;;;;;13.00;5.75;;;;;;;3.83;47.49;99130.69;4275125;33;34054;-89
2023/03/16 01:24:41;;;;;;;11.98;6.47;;;;;;;4.02;46.66;99126.25;4273962;33;33516;-87
2023/03/16 01:27:09;;;;;;;12.70;5.47;;;;;;;3.62;47.98;99130.69;4272485;33;34865;-89
2023/03/16 01:29:37;;;;;;;13.70;5.62;;;;;;;3.94;47.33;99133.66;4275359;33;35343;-89
2023/03/16 01:32:06;;;;;;;15.88;7.35;;;;;;;3.88;47.81;99128.28;4275765;33;34601;-88
2023/03/16 01:34:34;;;;;;;13.20;6.03;;;;;;;3.87;47.39;99127.41;4274538;33;33249;-89
2023/03/16 01:37:01;;;;;;;9.63;5.97;;;;;;;4.16;47.29;99125.06;4280501;33;34605;-87
2023/03/16 01:39:29;;;;;;;11.75;6.10;;;;;;;4.12;46.88;99133.47;4272223;33;34323;-87
2023/03/16 01:41:57;;;;;;;13.20;5.97;;;;;;;3.84;47.90;99141.81;4271214;33;34283;-88
2023/03/16 01:44:34;;;;;;;14.10;5.85;;;;;;;4.20;47.52;99134.63;4277212;33;33595;-87
2023/03/16 01:47:02;;;;;;;11.23;5.85;;;;;;;3.39;48.89;99139.16;4264251;33;34675;-87
2023/03/16 01:49:35;;;;;;;12.15;5.20;;;;;;;4.30;47.09;99134.16;4274291;33;33791;-89
2023/03/16 01:52:11;;;;;;;13.93;6.68;;;;;;;4.47;46.54;99142.50;4261164;33;34907;-87
2023/03/16 01:54:43;;;;;;;;;;;;;;;3.94;47.52;99140.47;4261696;33;34451;-90
2023/03/16 01:57:14;;;;;;;11.15;5.32;;;;;;;3.69;47.90;99141.22;4280834;33;34571;-86
2023/03/16 02:00:11;;;;;;;12.57;5.82;;;;;;;3.88;47.64;99141.13;4260963;33;34143;-87
2023/03/16 02:02:42;;;;;;;10.77;5.75;;;;;;;3.94;46.94;99149.06;4277099;33;33907;-87
2023/03/16 02:05:14;;;;;;;15.82;6.03;;;;;;;4.15;47.31;99154.13;4273943;33;32956;-86
2023/03/16 02:07:48;;;;;;;10.38;5.12;;;;;;;4.11;47.12;99159.94;4263031;33;33648;-86
2023/03/16 02:10:18;;;;;;;12.88;5.50;;;;;;;4.64;45.84;99161.06;4274862;33;34123;-85
2023/03/16 02:12:46;;;;;;;13.25;6.18;;;;;;;4.46;46.93;99161.25;4270738;33;33906;-91
2023/03/16 02:15:14;;;;;;;12.10;6.07;;;;;;;4.28;46.91;99173.41;4278901;33;33517;-88
2023/03/16 02:17:43;;;;;;;11.48;6.15;;;;;;;4.25;47.20;99174.19;4276074;33;33990;-89
2023/03/16 02:20:15;;;;;;;12.63;6.35;;;;;;;4.56;46.70;99177.87;4260447;33;33862;-89
2023/03/16 02:22:48;;;;;;;9.05;5.80;;;;;;;4.66;46.82;99179.06;4260497;33;34816;-87
2023/03/16 02:25:17;;;;;;;10.57;6.12;;;;;;;4.39;47.51;99185.84;4277026;33;33120;-89
2023/03/16 02:28:16;;;;;;;9.77;5.97;;;;;;;3.94;48.62;99192.66;4264258;33;34427;-89
2023/03/16 02:30:45;;;;;;;9.90;5.70;;;;;;;4.10;48.04;99189.00;4273499;33;35032;-86
2023/03/16 02:33:15;;;;;;;12.50;6.03;;;;;;;4.19;47.70;99191.03;4273323;33;34102;-87
2023/03/16 02:35:43;;;;;;;13.95;6.05;;;;;;;4.44;47.30;99192.84;4264179;33;34132;-86
2023/03/16 02:38:10;;;;;;;11.43;6.37;;;;;;;4.63;47.33;99188.44;4277160;33;34067;-87
2023/03/16 02:40:42;;;;;;;11.82;5.90;;;;;;;4.43;47.67;99198.78;4275616;33;33864;-86
2023/03/16 02:43:14;;;;;;;11.93;6.40;;;;;;;3.96;48.71;99211.53;4273838;33;34621;-89
2023/03/16 02:45:50;;;;;;;9.18;5.45;;;;;;;4.30;47.92;99205.16;4266023;33;34338;-86
2023/03/16 02:48:45;;;;;;;10.85;7.00;;;;;;;4.31;48.17;99212.03;4260764;33;33972;-90
2023/03/16 02:51:13;;;;;;;12.93;6.05;;;;;;;4.47;47.53;99214.38;4264904;33;33926;-90
2023/03/16 02:53:41;;;;;;;12.37;6.22;;;;;;;4.53;47.58;99213.72;4276017;33;34596;-87
2023/03/16 02:56:08;;;;;;;13.82;5.85;;;;;;;3.57;49.33;99219.38;4278825;33;34274;-90
2023/03/16 02:58:36;;;;;;;13.50;6.55;;;;;;;3.79;48.63;99217.66;4261061;33;34720;-86
2023/03/16 03:01:05;;;;;;;14.30;6.75;;;;;;;3.78;49.12;99224.50;4269256;33;34263;-88
2023/03/16 03:03:33;;;;;;;11.50;6.62;;;;;;;3.70;49.36;99231.00;4273785;33;33560;-88
2023/03/16 03:06:02;;;;;;;11.05;6.30;;;;;;;3.96;48.44;99229.50;4284575;33;34269;-87
2023/03/16 03:08:31;;;;;;;10.32;6.32;;;;;;;3.69;49.44;99234.38;4253533;33;33795;-86
2023/03/16 03:10:59;;;;;;;10.23;6.45;;;;;;;3.32;50.24;99242.22;4273495;33;35049;-88
2023/03/16 03:13:26;;;;;;;13.70;7.03;;;;;;;3.57;49.79;99241.56;4260152;33;33525;-87
2023/03/16 03:15:54;;;;;;;12.07;6.15;;;;;;;3.00;51.04;99248.53;4257567;33;32858;-87
2023/03/16 03:18:24;;;;;;;13.62;7.10;;;;;;;3.40;49.75;99256.22;4272984;33;33804;-91
2023/03/16 03:20:52;;;;;;;14.95;7.28;;;;;;;3.25;50.12;99248.75;4273853;33;34166;-87
2023/03/16 03:23:20;;;;;;;12.37;6.62;;;;;;;3.39;50.23;99249.34;4274544;33;34766;-86
2023/03/16 03:25:47;;;;;;;13.55;6.78;;;;;;;3.32;50.71;99252.47;4273823;33;34485;-86
2023/03/16 03:28:15;;;;;;;12.93;6.82;;;;;;;3.66;49.58;99255.63;4274874;33;34911;-86
2023/03/16 03:30:44;;;;;;;16.42;6.43;;;;;;;3.55;49.86;99261.13;4271076;33;35119;-86
2023/03/16 03:33:11;;;;;;;15.30;7.28;;;;;;;2.91;51.05;99262.66;4272228;33;34286;-86
2023/03/16 03:35:40;;;;;;;12.05;7.57;;;;;;;2.98;51.42;99266.38;4282092;33;34584;-88
2023/03/16 03:38:08;;;;;;;13.80;6.57;;;;;;;3.11;50.99;99262.69;4274142;33;34151;-87
2023/03/16 03:40:36;;;;;;;12.18;6.25;;;;;;;3.09;50.99;99271.97;4277283;33;33890;-88
2023/03/16 03:43:05;;;;;;;14.10;7.07;;;;;;;2.92;51.16;99273.81;4279205;33;33945;-88
2023/03/16 03:45:33;;;;;;;15.23;6.70;;;;;;;2.53;52.53;99283.97;4267849;33;32863;-88
2023/03/16 03:48:01;;;;;;;16.87;7.50;;;;;;;2.95;51.12;99273.03;4279535;33;33912;-88
2023/03/16 03:50:28;;;;;;;13.38;7.30;;;;;;;3.31;50.78;99287.47;4273398;33;32892;-89
2023/03/16 03:52:56;;;;;;;15.43;7.12;;;;;;;3.61;50.46;99290.47;4273512;33;33635;-86
2023/03/16 03:55:24;;;;;;;18.62;8.02;;;;;;;2.93;51.20;99290.91;4264968;33;32487;-86
2023/03/16 03:57:52;;;;;;;15.23;6.50;;;;;;;2.53;52.52;99296.75;4267491;33;34054;-88
2023/03/16 04:00:20;;;;;;;15.60;7.50;;;;;;;2.84;51.95;99293.94;4272741;33;34149;-88
2023/03/16 04:02:48;;;;;;;17.75;7.53;;;;;;;3.23;51.41;99288.81;4259833;33;34620;-87
2023/03/16 04:05:16;;;;;;;14.25;7.22;;;;;;;3.37;50.53;99287.75;4283293;33;33405;-88
2023/03/16 04:07:44;;;;;;;14.45;7.32;;;;;;;3.19;51.09;99292.06;4273388;33;33157;-86
2023/03/16 04:10:13;;;;;;;14.30;7.07;;;;;;;3.39;50.33;99295.50;4272255;33;34170;-89
2023/03/16 04:12:40;;;;;;;15.90;7.22;;;;;;;3.32;50.62;99294.34;4274642;33;33937;-86
2023/03/16 04:15:09;;;;;;;13.05;7.50;;;;;;;3.81;49.11;99301.53;4283993;33;33240;-86
2023/03/16 04:17:38;;;;;;;15.63;8.10;;;;;;;3.31;50.74;99295.16;4275897;33;35446;-88
2023/03/16 04:20:13;;;;;;;14.85;8.45;;;;;;;3.17;50.71;99293.66;4273095;33;34351;-87
2023/03/16 04:22:41;;;;;;;15.07;8.18;;;;;;;3.17;51.18;99296.22;4263521;33;34088;-87
2023/03/16 04:25:10;;;;;;;17.12;8.50;;;;;;;2.90;52.07;99299.31;4284240;33;33390;-89
2023/03/16 04:27:38;;;;;;;17.05;8.00;;;;;;;3.14;51.54;99306.34;4272601;33;33854;-92
2023/03/16 04:30:10;;;;;;;14.57;7.65;;;;;;;2.47;53.25;99313.53;4273087;33;34010;-85
2023/03/16 04:32:40;;;;;;;15.98;8.30;;;;;;;3.02;52.18;99319.47;4274715;33;33859;-87
2023/03/16 04:35:09;;;;;;;13.77;7.78;;;;;;;2.81;52.36;99323.66;4260932;33;32143;-88
2023/03/16 04:37:38;;;;;;;19.83;8.13;;;;;;;3.47;50.91;99319.75;4272951;33;34654;-90
2023/03/16 04:40:15;;;;;;;17.92;7.85;;;;;;;2.86;51.82;99328.16;4272692;33;34193;-87
2023/03/16 04:42:44;;;;;;;16.15;8.65;;;;;;;2.86;52.37;99327.28;4272400;33;34813;-87
2023/03/16 04:45:14;;;;;;;13.93;9.05;;;;;;;2.91;52.08;99329.22;4276662;33;33524;-87
2023/03/16 04:47:42;;;;;;;16.20;8.60;;;;;;;2.95;52.03;99332.81;4274808;33;33672;-86
2023/03/16 04:50:11;;;;;;;25.25;8.65;;;;;;;3.53;50.59;99329.41;4272686;33;33810;-91
2023/03/16 04:52:40;;;;;;;16.20;8.40;;;;;;;2.85;52.19;99341.78;4280037;33;34152;-88
2023/03/16 04:55:07;;;;;;;17.62;9.48;;;;;;;2.28;54.01;99340.78;4275125;33;33627;-87
2023/03/16 04:57:36;;;;;;;16.62;8.73;;;;;;;2.40;53.87;99346.50;4266612;33;34621;-87
2023/03/16 05:00:10;;;;;;;16.50;8.88;;;;;;;2.61;53.58;99356.88;4273954;33;33882;-89
2023/03/16 05:02:39;;;;;;;17.87;9.23;;;;;;;2.59;53.58;99352.47;4271433;33;34649;-87
2023/03/16 05:05:06;;;;;;;15.00;8.00;;;;;;;2.47;54.12;99364.72;4282561;33;33411;-89
2023/03/16 05:07:34;;;;;;;17.52;9.07;;;;;;;2.87;52.75;99358.06;4273304;33;33677;-87
2023/03/16 05:10:02;;;;;;;13.50;8.30;;;;;;;3.01;52.50;99361.28;4272239;33;33696;-91
2023/03/16 05:12:30;;;;;;;17.52;8.27;;;;;;;2.77;52.91;99361.03;4272287;33;33849;-86
2023/03/16 05:14:58;;;;;;;14.80;8.65;;;;;;;2.62;53.35;99368.00;4257203;33;35296;-91
2023/03/16 05:17:26;;;;;;;16.55;9.10;;;;;;;2.55;53.36;99366.81;4275628;33;33837;-87
2023/03/16 05:19:54;;;;;;;16.45;9.23;;;;;;;2.65;53.57;99370.66;4284948;33;35259;-86
2023/03/16 05:22:22;;;;;;;16.65;8.52;;;;;;;2.71;53.68;99370.97;4272094;33;33434;-86
2023/03/16 05:24:52;;;;;;;14.35;8.93;;;;;;;3.19;52.13;99374.03;4272690;33;33480;-87
2023/03/16 05:27:19;;;;;;;17.73;8.95;;;;;;;2.58;53.47;99366.09;4263679;33;33533;-87
2023/03/16 05:29:47;;;;;;;17.87;9.57;;;;;;;3.37;52.21;99367.19;4270163;33;34864;-87
2023/03/16 05:32:15;;;;;;;15.48;8.63;;;;;;;2.50;54.10;99372.50;4273552;33;33520;-89
2023/03/16 05:34:44;;;;;;;17.27;8.50;;;;;;;3.11;52.18;99365.16;4277331;33;33402;-89
2023/03/16 05:37:12;;;;;;;15.63;9.65;;;;;;;3.14;52.23;99368.72;4281496;33;33676;-89
2023/03/16 05:39:40;;;;;;;18.65;9.15;;;;;;;3.78;50.19;99362.97;4265127;33;33817;-88
2023/03/16 05:42:07;;;;;;;14.68;9.05;;;;;;;3.67;50.89;99369.31;4273969;33;33913;-90
2023/03/16 05:44:36;;;;;;;14.90;8.75;;;;;;;3.33;51.60;99366.97;4274414;33;34038;-88
2023/03/16 05:47:04;;;;;;;15.80;9.50;;;;;;;3.51;51.21;99374.59;4272777;33;33692;-88
2023/03/16 05:49:32;;;;;;;15.50;8.80;;;;;;;2.54;53.19;99376.97;4263394;33;34246;-89
2023/03/16 05:52:00;;;;;;;20.12;9.43;;;;;;;2.83;53.08;99375.78;4269705;33;34152;-89
2023/03/16 05:54:29;;;;;;;16.73;9.15;;;;;;;2.84;53.08;99381.00;4279395;33;33211;-90
2023/03/16 05:56:56;;;;;;;16.40;9.02;;;;;;;3.34;51.84;99390.09;4274202;33;33793;-91
2023/03/16 05:59:24;;;;;;;15.57;8.70;;;;;;;3.06;52.61;99390.53;4260977;33;34261;-91
2023/03/16 06:01:52;;;;;;;17.70;9.48;;;;;;;3.28;51.98;99389.81;4258426;33;34339;-94
2023/03/16 06:04:20;;;;;;;14.77;8.93;;;;;;;3.34;51.42;99397.78;4268934;33;33718;-89
2023/03/16 06:06:48;;;;;;;13.93;8.93;;;;;;;3.36;51.29;99393.59;4269994;33;33287;-89
2023/03/16 06:09:16;;;;;;;16.05;8.65;;;;;;;3.23;53.12;99411.81;4274753;33;34548;-92
2023/03/16 06:11:43;;;;;;;16.52;8.80;;;;;;;2.92;53.47;99407.84;4276538;33;34754;-94
2023/03/16 06:14:13;;;;;;;17.12;8.77;;;;;;;3.11;52.60;99411.25;4286724;33;33366;-90
2023/03/16 06:16:41;;;;;;;19.42;8.82;;;;;;;2.91;53.56;99413.75;4271001;33;32352;-91
2023/03/16 06:19:09;;;;;;;17.35;9.05;;;;;;;3.10;52.83;99422.28;4260986;33;33817;-91
2023/03/16 06:21:37;;;;;;;18.70;8.68;;;;;;;3.49;52.12;99419.81;4274567;33;34524;-91
2023/03/16 06:24:08;;;;;;;15.45;8.70;;;;;;;3.62;51.10;99425.53;4255662;33;32610;-91
2023/03/16 06:26:36;;;;;;;18.42;9.55;;;;;;;3.28;52.44;99433.38;4260744;33;33802;-88
2023/03/16 06:29:04;;;;;;;19.23;8.90;;;;;;;3.28;51.99;99440.19;4264280;33;33805;-90
2023/03/16 06:31:32;;;;;;;16.62;8.70;;;;;;;2.96;53.83;99446.41;4277407;33;34162;-94
2023/03/16 06:34:01;;;;;;;19.67;9.23;;;;;;;3.18;52.81;99446.56;4273864;33;34842;-93
2023/03/16 06:36:29;;;;;;;16.37;8.32;;;;;;;3.55;51.99;99448.25;4274000;33;34267;-91
2023/03/16 06:38:57;;;;;;;19.77;9.82;;;;;;;3.55;52.02;99456.81;4273661;33;34280;-90
2023/03/16 06:41:25;;;;;;;16.37;8.82;;;;;;;3.50;51.85;99460.87;4273778;33;33791;-90
2023/03/16 06:43:53;;;;;;;16.02;9.60;;;;;;;3.80;51.74;99458.81;4260931;33;33259;-91
2023/03/16 06:46:20;;;;;;;15.52;8.65;;;;;;;3.40;52.63;99472.38;4273348;33;34749;-90
2023/03/16 06:48:48;;;;;;;14.65;8.95;;;;;;;3.54;52.17;99464.44;4273882;33;33968;-91
2023/03/16 06:51:16;;;;;;;16.08;9.05;;;;;;;3.87;51.09;99475.34;4273841;33;34512;-90
2023/03/16 06:53:44;;;;;;;17.75;9.00;;;;;;;3.74;52.19;99484.16;4273503;33;33826;-90
2023/03/16 06:56:12;;;;;;;17.95;9.55;;;;;;;4.02;50.68;99480.28;4273820;33;33793;-91
2023/03/16 06:58:40;;;;;;;15.07;9.18;;;;;;;4.26;50.28;99491.59;4260832;33;33854;-90
2023/03/16 07:01:08;;;;;;;14.93;9.15;;;;;;;3.99;50.90;99490.41;4260397;33;33504;-91
2023/03/16 07:03:36;;;;;;;16.48;9.00;;;;;;;3.63;51.95;99493.94;4260710;33;34080;-91
2023/03/16 07:06:04;;;;;;;15.52;9.15;;;;;;;4.25;50.40;99489.84;4247880;33;32333;-91
2023/03/16 07:08:32;;;;;;;15.98;9.30;;;;;;;4.27;50.35;99488.19;4260588;33;35038;-92
2023/03/16 07:11:00;;;;;;;14.18;8.95;;;;;;;4.32;50.45;99496.13;4284129;33;33472;-91
2023/03/16 07:13:29;;;;;;;15.23;10.05;;;;;;;4.35;50.43;99509.06;4273471;33;33494;-93
2023/03/16 07:15:56;;;;;;;16.25;9.20;;;;;;;4.55;50.16;99499.66;4273133;33;33975;-91
2023/03/16 07:18:24;;;;;;;19.08;9.80;;;;;;;4.35;50.26;99512.50;4267560;33;33717;-92
2023/03/16 07:20:53;;;;;;;16.55;9.23;;;;;;;4.64;50.10;99510.28;4273491;33;34022;-91
2023/03/16 07:23:23;;;;;;;18.55;10.02;;;;;;;4.34;50.60;99515.00;4260584;33;33966;-91
2023/03/16 07:25:52;;;;;;;18.80;10.18;;;;;;;4.50;50.08;99521.66;4249267;33;33627;-94
2023/03/16 07:28:19;;;;;;;15.38;9.60;;;;;;;4.16;50.82;99533.03;4273625;33;33943;-90
2023/03/16 07:30:47;;;;;;;17.80;9.73;;;;;;;4.26;50.60;99531.78;4259925;33;34190;-91
2023/03/16 07:33:32;;;;;;;14.30;9.02;;;;;;;4.42;50.52;99539.31;4272481;33;33546;-91
2023/03/16 07:36:03;;;;;;;15.75;9.80;;;;;;;4.82;49.43;99534.19;4259928;33;33871;-91
2023/03/16 07:38:32;;;;;;;15.60;9.32;;;;;;;4.97;49.24;99535.63;4261215;33;33619;-91
2023/03/16 07:41:01;;;;;;;13.52;8.93;;;;;;;5.49;48.41;99533.44;4260184;33;33504;-90
2023/03/16 07:43:28;;;;;;;15.57;9.23;;;;;;;5.45;47.63;99538.38;4259790;33;33654;-91
2023/03/16 07:45:56;;;;;;;17.80;9.80;;;;;;;4.86;49.01;99533.50;4273225;33;33615;-91
2023/03/16 07:48:24;;;;;;;14.00;8.80;;;;;;;4.91;49.64;99531.09;4273495;33;33746;-91
2023/03/16 07:50:53;;;;;;;15.25;9.35;;;;;;;4.68;50.20;99540.44;4272890;33;33913;-91
2023/03/16 07:53:21;;;;;;;20.17;9.43;;;;;;;5.13;48.68;99543.13;4248905;33;33115;-92
2023/03/16 07:55:49;;;;;;;16.23;8.95;;;;;;;5.28;48.84;99535.16;4273952;33;33969;-90
2023/03/16 07:58:17;;;;;;;16.95;9.60;;;;;;;5.23;48.38;99542.69;4284074;33;33717;-94
2023/03/16 08:00:45;;;;;;;15.65;9.88;;;;;;;5.34;48.08;99530.25;4273376;33;33621;-91
2023/03/16 08:03:12;;;;;;;15.32;9.23;;;;;;;4.99;48.97;99536.56;4273190;33;33353;-92
2023/03/16 08:05:40;;;;;;;14.20;9.20;;;;;;;5.39;48.29;99525.31;4273074;33;34706;-91
2023/03/16 08:08:10;;;;;;;15.73;10.32;;;;;;;5.68;48.35;99539.25;4273326;33;33830;-91
2023/03/16 08:10:38;;;;;;;14.30;9.32;;;;;;;5.92;48.07;99531.59;4260582;33;34577;-91
2023/03/16 08:13:07;;;;;;;15.55;9.90;;;;;;;5.78;48.36;99539.66;4259898;33;32003;-91
2023/03/16 08:15:35;;;;;;;16.30;8.75;;;;;;;6.10;48.07;99529.75;4273304;33;33834;-91
2023/03/16 08:18:03;;;;;;;13.95;8.55;;;;;;;6.45;46.21;99523.25;4272531;33;34345;-92
2023/03/16 08:20:30;;;;;;;20.00;8.68;;;;;;;6.42;44.97;99536.03;4273027;33;33705;-93
2023/03/16 08:22:58;;;;;;;14.70;8.05;;;;;;;6.46;45.65;99534.44;4273261;33;34272;-91
2023/03/16 08:25:26;;;;;;;15.43;8.18;;;;;;;6.28;45.77;99553.56;4273159;33;34787;-92
2023/03/16 08:27:56;;;;;;;13.68;8.35;;;;;;;6.92;44.35;99551.47;4273210;33;33906;-91
2023/03/16 08:30:25;;;;;;;14.15;8.90;;;;;;;6.80;45.00;99550.22;4267306;33;33669;-91
2023/03/16 08:32:54;;;;;;;16.00;8.70;;;;;;;6.70;45.41;99550.72;4272961;33;34005;-92
2023/03/16 08:35:22;;;;;;;12.95;8.50;;;;;;;6.89;44.66;99546.19;4272883;33;34056;-91
2023/03/16 08:37:49;;;;;;;13.40;7.03;;;;;;;6.76;44.88;99550.94;4272653;33;34961;-91
2023/03/16 08:40:17;;;;;;;13.20;7.35;;;;;;;7.12;42.71;99542.66;4271969;33;33184;-94
2023/03/16 08:42:48;;;;;;;11.98;7.22;;;;;;;7.14;43.15;99553.06;4272943;33;34227;-92
2023/03/16 08:45:18;;;;;;;13.25;7.50;;;;;;;7.28;42.55;99547.50;4248458;33;33024;-92
2023/03/16 08:47:46;;;;;;;11.38;7.40;;;;;;;7.45;42.97;99544.59;4273170;33;34199;-92
2023/03/16 08:50:14;;;;;;;14.80;7.70;;;;;;;7.40;43.54;99541.00;4272873;33;34630;-93
2023/03/16 08:52:42;;;;;;;13.75;7.20;;;;;;;7.90;43.20;99544.22;4260025;33;34545;-93
2023/03/16 08:55:10;;;;;;;13.13;7.57;;;;;;;7.95;41.63;99540.94;4272766;33;33688;-92
2023/03/16 08:57:38;;;;;;;10.15;6.78;;;;;;;7.98;41.58;99545.31;4260041;33;33580;-92
2023/03/16 09:00:13;;;;;;;13.07;7.60;;;;;;;7.85;41.91;99550.97;4272413;33;33696;-91
2023/03/16 09:02:43;;;;;;;10.38;6.72;;;;;;;7.88;42.03;99551.03;4259611;33;32571;-90
2023/03/16 09:05:13;;;;;;;12.07;7.25;;;;;;;8.07;41.04;99543.03;4259924;33;33918;-92
2023/03/16 09:07:41;;;;;;;14.15;7.20;;;;;;;8.11;41.36;99539.69;4272481;33;34226;-92
2023/03/16 09:10:12;;;;;;;12.95;8.07;;;;;;;8.23;41.46;99542.63;4247434;33;33963;-92
2023/03/16 09:12:40;;;;;;;13.70;6.43;;;;;;;8.10;41.58;99543.09;4259750;33;34300;-91
2023/03/16 09:15:09;;;;;;;14.75;6.85;;;;;;;7.95;41.91;99547.81;4273110;33;34432;-92
2023/03/16 09:17:38;;;;;;;13.13;6.72;;;;;;;8.75;39.66;99541.47;4259332;33;35042;-91
2023/03/16 09:20:09;;;;;;;10.77;5.00;;;;;;;8.65;39.79;99541.19;4259279;33;34097;-85
2023/03/16 09:22:57;;;;;;;12.25;6.22;;;;;;;8.00;38.28;99552.28;4272423;33;33045;-91
2023/03/16 09:25:25;;;;;;;9.18;4.62;;;;;;;8.16;37.71;99553.59;4266249;33;33949;-92
2023/03/16 09:27:52;;;;;;;9.15;5.05;;;;;;;8.13;38.05;99552.63;4259075;33;33808;-92
2023/03/16 09:30:20;;;;;;;12.30;5.47;;;;;;;8.50;37.33;99555.44;4260210;33;34585;-92
2023/03/16 09:32:49;;;;;;;9.68;5.22;;;;;;;8.73;36.79;99557.78;4249184;33;33881;-91
2023/03/16 09:35:16;;;;;;;10.82;5.90;;;;;;;8.74;36.08;99551.75;4261242;33;34623;-92
2023/03/16 09:37:44;;;;;;;8.98;5.30;;;;;;;8.69;36.93;99558.53;4260939;33;34986;-92
2023/03/16 09:40:32;;;;;;;10.18;5.40;;;;;;;8.62;36.84;99554.91;4263344;33;33914;-91
2023/03/16 09:43:06;;;;;;;8.70;4.45;;;;;;;8.73;35.67;99553.47;4260999;33;33543;-91
2023/03/16 09:46:00;;;;;;;9.45;4.40;;;;;;;8.55;34.42;99570.19;4273966;33;34463;-93
2023/03/16 09:48:29;;;;;;;8.63;4.10;;;;;;;9.02;32.31;99553.34;4273659;33;34367;-92
2023/03/16 09:50:58;;;;;;;8.35;4.32;;;;;;;8.72;33.40;99559.50;4260876;33;33942;-92
2023/03/16 09:53:31;;;;;;;8.27;4.65;;;;;;;8.86;34.15;99564.13;4261035;33;33352;-92
2023/03/16 09:56:04;;;;;;;8.70;4.75;;;;;;;9.30;35.19;99557.47;4272600;33;33980;-91
2023/03/16 09:58:32;;;;;;;9.68;4.40;;;;;;;8.99;33.72;99567.06;4260209;33;34227;-91
2023/03/16 10:01:27;;;;;;;8.35;4.45;;;;;;;9.08;33.26;99560.38;4259657;33;32967;-92
2023/03/16 10:04:12;;;;;;;11.80;6.05;;;;;;;8.76;33.77;99557.84;4273806;33;33539;-92
2023/03/16 10:07:08;;;;;;;9.85;5.03;;;;;;;9.27;36.42;99566.03;4260854;33;34139;-92
2023/03/16 10:09:40;;;;;;;10.55;5.65;;;;;;;9.27;34.15;99557.41;4248301;33;33987;-92
2023/03/16 10:12:08;;;;;;;9.52;4.82;;;;;;;8.98;33.92;99569.63;4272791;33;33809;-92
2023/03/16 10:14:44;;;;;;;9.98;4.87;;;;;;;9.21;33.61;99571.09;4253618;33;33315;-91
2023/03/16 10:17:26;;;;;;;12.10;5.93;;;;;;;9.66;33.50;99567.84;4259316;33;33751;-91
2023/03/16 10:19:56;;;;;;;8.80;4.70;;;;;;;9.71;34.02;99579.16;4261033;33;33839;-91
2023/03/16 10:22:36;;;;;;;11.02;5.80;;;;;;;9.75;35.47;99574.94;4249220;33;33547;-92
2023/03/16 10:25:23;;;;;;;8.20;5.18;;;;;;;9.78;35.92;99572.41;4260834;33;33277;-92
2023/03/16 10:27:51;;;;;;;9.68;5.72;;;;;;;9.78;34.68;99571.53;4273747;33;34370;-92
2023/03/16 10:30:18;;;;;;;9.57;5.25;;;;;;;9.97;34.46;99576.28;4284124;33;34509;-93
2023/03/16 10:32:47;;;;;;;9.52;4.82;;;;;;;10.29;33.05;99569.19;4273413;33;33186;-81
2023/03/16 10:35:26;;;;;;;12.00;5.53;;;;;;;9.80;34.01;99564.66;4273329;33;34208;-92
2023/03/16 10:37:56;;;;;;;10.95;5.45;;;;;;;9.66;34.72;99567.84;4273603;33;33984;-92
2023/03/16 10:40:23;;;;;;;7.57;4.32;;;;;;;9.59;34.67;99573.72;4248873;33;33431;-92
2023/03/16 10:42:51;;;;;;;8.13;4.43;;;;;;;9.68;34.30;99573.03;4260650;33;33814;-92
2023/03/16 10:45:24;;;;;;;11.07;4.25;;;;;;;9.76;34.27;99566.31;4260427;33;34166;-92
2023/03/16 10:47:51;;;;;;;9.77;4.75;;;;;;;9.71;34.66;99568.81;4260888;33;33610;-92
2023/03/16 10:50:24;;;;;;;8.50;4.80;;;;;;;9.55;33.56;99558.06;4260749;33;33810;-92
2023/03/16 10:52:54;;;;;;;7.80;4.70;;;;;;;9.70;34.27;99574.81;4260280;33;35011;-91
2023/03/16 10:55:31;;;;;;;8.02;4.60;;;;;;;9.88;33.51;99573.47;4273151;33;33827;-92
2023/03/16 10:58:00;;;;;;;8.93;4.62;;;;;;;9.88;33.12;99573.47;4260846;33;34170;-92
2023/03/16 11:00:42;;;;;;;8.82;4.15;;;;;;;10.36;33.45;99558.13;4272113;33;34702;-91
2023/03/16 11:03:27;;;;;;;7.75;4.18;;;;;;;10.38;31.10;99555.53;4260164;33;34826;-92
2023/03/16 11:06:00;;;;;;;7.50;4.10;;;;;;;10.17;31.75;99546.47;4273111;33;33603;-84
2023/03/16 11:08:33;;;;;;;7.37;3.90;;;;;;;9.72;31.44;99562.78;4283972;33;34030;-92
2023/03/16 11:11:08;;;;;;;7.47;3.83;;;;;;;9.63;31.82;99567.75;4260640;33;34201;-93
2023/03/16 11:13:37;;;;;;;9.38;3.95;;;;;;;10.08;30.08;99551.47;4260051;33;33838;-88
2023/03/16 11:16:38;;;;;;;9.57;4.05;;;;;;;9.95;30.94;99558.09;4260088;33;32995;-91
2023/03/16 11:19:28;;;;;;;6.75;3.70;;;;;;;10.32;30.51;99550.25;4248383;33;33178;-92
2023/03/16 11:22:17;;;;;;;8.70;3.67;;;;;;;11.13;28.80;99544.81;4237098;33;34063;-92
2023/03/16 11:24:52;;;;;;;8.13;3.50;;;;;;;10.54;29.42;99539.47;4260490;33;32636;-93
2023/03/16 11:27:25;;;;;;;7.03;3.72;;;;;;;10.69;29.65;99538.88;4271962;33;33088;-91
2023/03/16 11:30:00;;;;;;;6.70;3.72;;;;;;;10.69;28.62;99529.37;4259627;33;33679;-92
2023/03/16 11:32:35;;;;;;;8.73;3.90;;;;;;;10.87;30.44;99546.09;4271772;33;33801;-93
2023/03/16 11:35:21;;;;;;;8.43;3.85;;;;;;;10.61;28.21;99543.91;4248450;33;33446;-92
2023/03/16 11:38:13;;;;;;;6.93;3.08;;;;;;;10.33;28.14;99526.94;4272515;33;33626;-94
2023/03/16 11:40:49;;;;;;;6.00;3.10;;;;;;;11.02;27.18;99530.78;4248607;33;33145;-92
2023/03/16 11:43:41;;;;;;;6.90;3.40;;;;;;;11.18;27.63;99518.97;4247874;33;33814;-92
2023/03/16 11:46:10;;;;;;;7.72;2.78;;;;;;;10.93;27.25;99528.06;4271867;33;32999;-92
2023/03/16 11:49:00;;;;;;;6.57;2.95;;;;;;;10.98;28.02;99515.16;4236129;33;33642;-91
2023/03/16 11:51:27;;;;;;;7.68;2.67;;;;;;;11.26;27.07;99514.75;4260027;33;33475;-92